sensor_id;sensor_type;location;lat;lon;timestamp;temperature;humidity
52209;DHT22;38507;53.132;6.394;2022-07-10T00:00:32;13.70;99.90
52209;DHT22;38507;53.132;6.394;2022-07-10T00:03:01;13.50;99.90
52209;DHT22;38507;53.132;6.394;2022-07-10T00:05:28;13.40;99.90
52209;DHT22;38507;53.132;6.394;2022-07-10T00:07:54;13.40;99.90
52209;DHT22;38507;53.132;6.394;2022-07-10T00:10:21;13.40;99.90
52209;DHT22;38507;53.132;6.394;2022-07-10T00:12:47;13.30;99.90
52209;DHT22;38507;53.132;6.394;2022-07-10T00:15:14;13.40;99.90
52209;DHT22;38507;53.132;6.394;2022-07-10T00:17:41;13.30;99.90
52209;DHT22;38507;53.132;6.394;2022-07-10T00:20:07;13.40;99.90
52209;DHT22;38507;53.132;6.394;2022-07-10T00:22:34;13.30;99.90
52209;DHT22;38507;53.132;6.394;2022-07-10T00:25:03;13.30;99.90
52209;DHT22;38507;53.132;6.394;2022-07-10T00:27:29;13.30;99.90
52209;DHT22;38507;53.132;6.394;2022-07-10T00:29:56;13.80;99.90
52209;DHT22;38507;53.132;6.394;2022-07-10T00:32:22;13.60;99.90
52209;DHT22;38507;53.132;6.394;2022-07-10T00:34:48;13.40;99.90
52209;DHT22;38507;53.132;6.394;2022-07-10T00:37:13;13.40;99.90
52209;DHT22;38507;53.132;6.394;2022-07-10T00:39:39;13.30;99.90
52209;DHT22;38507;53.132;6.394;2022-07-10T00:42:07;13.20;99.90
52209;DHT22;38507;53.132;6.394;2022-07-10T00:44:33;13.30;99.90
52209;DHT22;38507;53.132;6.394;2022-07-10T00:46:59;13.30;99.90
52209;DHT22;38507;53.132;6.394;2022-07-10T00:49:25;13.30;99.90
52209;DHT22;38507;53.132;6.394;2022-07-10T00:51:50;13.40;99.90
52209;DHT22;38507;53.132;6.394;2022-07-10T00:54:16;13.30;99.90
52209;DHT22;38507;53.132;6.394;2022-07-10T00:56:42;13.40;99.90
52209;DHT22;38507;53.132;6.394;2022-07-10T00:59:09;13.40;99.90
52209;DHT22;38507;53.132;6.394;2022-07-10T01:01:36;13.30;99.90
52209;DHT22;38507;53.132;6.394;2022-07-10T01:04:02;13.30;99.90
52209;DHT22;38507;53.132;6.394;2022-07-10T01:06:28;13.30;99.90
52209;DHT22;38507;53.132;6.394;2022-07-10T01:08:53;13.30;99.90
52209;DHT22;38507;53.132;6.394;2022-07-10T01:11:20;13.30;99.90
52209;DHT22;38507;53.132;6.394;2022-07-10T01:13:46;13.30;99.90
52209;DHT22;38507;53.132;6.394;2022-07-10T01:16:12;13.30;99.90
52209;DHT22;38507;53.132;6.394;2022-07-10T01:18:39;13.30;99.90
52209;DHT22;38507;53.132;6.394;2022-07-10T01:21:05;13.20;99.90
52209;DHT22;38507;53.132;6.394;2022-07-10T01:23:31;13.20;99.90
52209;DHT22;38507;53.132;6.394;2022-07-10T01:25:57;13.10;99.90
52209;DHT22;38507;53.132;6.394;2022-07-10T01:28:23;13.30;99.90
52209;DHT22;38507;53.132;6.394;2022-07-10T01:30:49;13.50;99.90
52209;DHT22;38507;53.132;6.394;2022-07-10T01:33:15;13.30;99.90
52209;DHT22;38507;53.132;6.394;2022-07-10T01:35:41;13.00;99.90
52209;DHT22;38507;53.132;6.394;2022-07-10T01:38:06;12.90;99.90
52209;DHT22;38507;53.132;6.394;2022-07-10T01:40:32;12.90;99.90
52209;DHT22;38507;53.132;6.394;2022-07-10T01:42:58;12.80;99.90
52209;DHT22;38507;53.132;6.394;2022-07-10T01:45:24;12.80;99.90
52209;DHT22;38507;53.132;6.394;2022-07-10T01:47:50;12.70;99.90
52209;DHT22;38507;53.132;6.394;2022-07-10T01:50:16;12.70;99.90
52209;DHT22;38507;53.132;6.394;2022-07-10T01:52:42;12.70;99.90
52209;DHT22;38507;53.132;6.394;2022-07-10T01:55:08;12.60;99.90
52209;DHT22;38507;53.132;6.394;2022-07-10T01:57:34;12.60;99.90
52209;DHT22;38507;53.132;6.394;2022-07-10T02:00:00;12.80;99.90
52209;DHT22;38507;53.132;6.394;2022-07-10T02:02:26;12.50;99.90
52209;DHT22;38507;53.132;6.394;2022-07-10T02:04:52;12.50;99.90
52209;DHT22;38507;53.132;6.394;2022-07-10T02:07:19;12.40;99.90
52209;DHT22;38507;53.132;6.394;2022-07-10T02:09:47;12.40;99.90
52209;DHT22;38507;53.132;6.394;2022-07-10T02:12:14;12.40;99.90
52209;DHT22;38507;53.132;6.394;2022-07-10T02:14:40;12.40;99.90
52209;DHT22;38507;53.132;6.394;2022-07-10T02:17:07;12.80;99.90
52209;DHT22;38507;53.132;6.394;2022-07-10T02:19:33;12.30;99.90
52209;DHT22;38507;53.132;6.394;2022-07-10T02:21:59;12.20;99.90
52209;DHT22;38507;53.132;6.394;2022-07-10T02:24:26;12.20;99.90
52209;DHT22;38507;53.132;6.394;2022-07-10T02:26:54;12.20;99.90
52209;DHT22;38507;53.132;6.394;2022-07-10T02:29:21;12.20;99.90
52209;DHT22;38507;53.132;6.394;2022-07-10T02:31:48;12.20;99.90
52209;DHT22;38507;53.132;6.394;2022-07-10T02:34:14;12.10;99.90
52209;DHT22;38507;53.132;6.394;2022-07-10T02:36:40;12.10;99.90
52209;DHT22;38507;53.132;6.394;2022-07-10T02:39:06;12.10;99.90
52209;DHT22;38507;53.132;6.394;2022-07-10T02:41:32;12.20;99.90
52209;DHT22;38507;53.132;6.394;2022-07-10T02:43:58;12.10;99.90
52209;DHT22;38507;53.132;6.394;2022-07-10T02:46:25;12.20;99.90
52209;DHT22;38507;53.132;6.394;2022-07-10T02:48:51;12.20;99.90
52209;DHT22;38507;53.132;6.394;2022-07-10T02:51:17;12.20;99.90
52209;DHT22;38507;53.132;6.394;2022-07-10T02:53:43;12.30;99.90
52209;DHT22;38507;53.132;6.394;2022-07-10T02:56:08;12.30;99.90
52209;DHT22;38507;53.132;6.394;2022-07-10T02:58:34;12.20;99.90
52209;DHT22;38507;53.132;6.394;2022-07-10T03:01:00;12.20;99.90
52209;DHT22;38507;53.132;6.394;2022-07-10T03:03:26;12.20;99.90
52209;DHT22;38507;53.132;6.394;2022-07-10T03:05:52;12.30;99.90
52209;DHT22;38507;53.132;6.394;2022-07-10T03:08:18;12.30;99.90
52209;DHT22;38507;53.132;6.394;2022-07-10T03:10:44;12.30;99.90
52209;DHT22;38507;53.132;6.394;2022-07-10T03:13:10;12.30;99.90
52209;DHT22;38507;53.132;6.394;2022-07-10T03:15:35;12.40;99.90
52209;DHT22;38507;53.132;6.394;2022-07-10T03:18:01;12.50;99.90
52209;DHT22;38507;53.132;6.394;2022-07-10T03:20:27;12.50;99.90
52209;DHT22;38507;53.132;6.394;2022-07-10T03:22:53;12.50;99.90
52209;DHT22;38507;53.132;6.394;2022-07-10T03:25:19;12.60;99.90
52209;DHT22;38507;53.132;6.394;2022-07-10T03:27:45;12.60;99.90
52209;DHT22;38507;53.132;6.394;2022-07-10T03:30:11;13.10;99.90
52209;DHT22;38507;53.132;6.394;2022-07-10T03:32:37;12.80;99.90
52209;DHT22;38507;53.132;6.394;2022-07-10T03:35:02;13.30;99.90
52209;DHT22;38507;53.132;6.394;2022-07-10T03:37:28;12.90;99.90
52209;DHT22;38507;53.132;6.394;2022-07-10T03:39:54;12.90;99.90
52209;DHT22;38507;53.132;6.394;2022-07-10T03:42:20;13.00;99.90
52209;DHT22;38507;53.132;6.394;2022-07-10T03:44:46;13.10;99.90
52209;DHT22;38507;53.132;6.394;2022-07-10T03:47:12;13.20;99.90
52209;DHT22;38507;53.132;6.394;2022-07-10T03:49:38;13.20;99.90
52209;DHT22;38507;53.132;6.394;2022-07-10T03:52:07;13.20;99.90
52209;DHT22;38507;53.132;6.394;2022-07-10T03:54:34;13.30;99.90
52209;DHT22;38507;53.132;6.394;2022-07-10T03:56:59;13.30;99.90
52209;DHT22;38507;53.132;6.394;2022-07-10T03:59:44;13.40;99.90
52209;DHT22;38507;53.132;6.394;2022-07-10T04:02:10;13.40;99.90
52209;DHT22;38507;53.132;6.394;2022-07-10T04:04:35;13.60;99.90
52209;DHT22;38507;53.132;6.394;2022-07-10T04:07:01;13.50;99.90
52209;DHT22;38507;53.132;6.394;2022-07-10T04:09:27;13.50;99.90
52209;DHT22;38507;53.132;6.394;2022-07-10T04:11:52;13.60;99.90
52209;DHT22;38507;53.132;6.394;2022-07-10T04:14:18;13.70;99.90
52209;DHT22;38507;53.132;6.394;2022-07-10T04:16:44;13.70;99.90
52209;DHT22;38507;53.132;6.394;2022-07-10T04:19:10;13.70;99.90
52209;DHT22;38507;53.132;6.394;2022-07-10T04:21:35;13.80;99.90
52209;DHT22;38507;53.132;6.394;2022-07-10T04:24:02;13.80;99.90
52209;DHT22;38507;53.132;6.394;2022-07-10T04:26:28;13.90;99.90
52209;DHT22;38507;53.132;6.394;2022-07-10T04:28:54;13.90;99.90
52209;DHT22;38507;53.132;6.394;2022-07-10T04:31:20;13.90;99.90
52209;DHT22;38507;53.132;6.394;2022-07-10T04:33:46;14.00;99.90
52209;DHT22;38507;53.132;6.394;2022-07-10T04:36:12;14.00;99.90
52209;DHT22;38507;53.132;6.394;2022-07-10T04:38:37;14.10;99.90
52209;DHT22;38507;53.132;6.394;2022-07-10T04:41:03;14.10;99.90
52209;DHT22;38507;53.132;6.394;2022-07-10T04:43:30;14.10;99.90
52209;DHT22;38507;53.132;6.394;2022-07-10T04:45:56;14.20;99.90
52209;DHT22;38507;53.132;6.394;2022-07-10T04:48:22;14.20;99.90
52209;DHT22;38507;53.132;6.394;2022-07-10T04:50:48;14.20;99.90
52209;DHT22;38507;53.132;6.394;2022-07-10T04:53:13;14.30;99.90
52209;DHT22;38507;53.132;6.394;2022-07-10T04:55:39;14.40;99.90
52209;DHT22;38507;53.132;6.394;2022-07-10T04:58:05;14.30;99.90
52209;DHT22;38507;53.132;6.394;2022-07-10T05:00:30;14.30;99.90
52209;DHT22;38507;53.132;6.394;2022-07-10T05:02:56;14.40;99.90
52209;DHT22;38507;53.132;6.394;2022-07-10T05:05:22;14.40;99.90
52209;DHT22;38507;53.132;6.394;2022-07-10T05:07:48;14.40;99.90
52209;DHT22;38507;53.132;6.394;2022-07-10T05:10:14;14.40;99.90
52209;DHT22;38507;53.132;6.394;2022-07-10T05:12:39;14.50;99.90
52209;DHT22;38507;53.132;6.394;2022-07-10T05:15:05;14.50;99.90
52209;DHT22;38507;53.132;6.394;2022-07-10T05:17:31;14.50;99.90
52209;DHT22;38507;53.132;6.394;2022-07-10T05:19:57;14.50;99.90
52209;DHT22;38507;53.132;6.394;2022-07-10T05:22:24;14.50;99.90
52209;DHT22;38507;53.132;6.394;2022-07-10T05:24:49;14.60;99.90
52209;DHT22;38507;53.132;6.394;2022-07-10T05:27:15;14.60;99.90
52209;DHT22;38507;53.132;6.394;2022-07-10T05:29:46;14.60;99.90
52209;DHT22;38507;53.132;6.394;2022-07-10T05:32:11;14.70;99.90
52209;DHT22;38507;53.132;6.394;2022-07-10T05:34:37;14.70;99.90
52209;DHT22;38507;53.132;6.394;2022-07-10T05:37:03;14.70;99.90
52209;DHT22;38507;53.132;6.394;2022-07-10T05:39:28;14.80;99.90
52209;DHT22;38507;53.132;6.394;2022-07-10T05:41:54;14.80;99.90
52209;DHT22;38507;53.132;6.394;2022-07-10T05:44:21;14.80;99.90
52209;DHT22;38507;53.132;6.394;2022-07-10T05:46:47;15.10;99.90
52209;DHT22;38507;53.132;6.394;2022-07-10T05:49:12;14.80;99.90
52209;DHT22;38507;53.132;6.394;2022-07-10T05:51:38;14.80;99.90
52209;DHT22;38507;53.132;6.394;2022-07-10T05:54:04;14.80;99.90
52209;DHT22;38507;53.132;6.394;2022-07-10T05:56:30;14.90;99.90
52209;DHT22;38507;53.132;6.394;2022-07-10T05:58:55;15.10;99.90
52209;DHT22;38507;53.132;6.394;2022-07-10T06:01:22;15.00;99.90
52209;DHT22;38507;53.132;6.394;2022-07-10T06:03:47;15.00;99.90
52209;DHT22;38507;53.132;6.394;2022-07-10T06:06:13;15.10;99.90
52209;DHT22;38507;53.132;6.394;2022-07-10T06:08:41;15.10;99.90
52209;DHT22;38507;53.132;6.394;2022-07-10T06:11:07;15.20;99.90
52209;DHT22;38507;53.132;6.394;2022-07-10T06:13:33;15.00;99.90
52209;DHT22;38507;53.132;6.394;2022-07-10T06:15:58;15.00;99.90
52209;DHT22;38507;53.132;6.394;2022-07-10T06:18:24;15.10;99.90
52209;DHT22;38507;53.132;6.394;2022-07-10T06:20:49;15.10;99.90
52209;DHT22;38507;53.132;6.394;2022-07-10T06:23:15;15.20;99.90
52209;DHT22;38507;53.132;6.394;2022-07-10T06:25:41;15.20;99.90
52209;DHT22;38507;53.132;6.394;2022-07-10T06:28:06;15.30;99.90
52209;DHT22;38507;53.132;6.394;2022-07-10T06:30:32;15.40;99.90
52209;DHT22;38507;53.132;6.394;2022-07-10T06:32:58;15.40;99.90
52209;DHT22;38507;53.132;6.394;2022-07-10T06:35:23;15.40;99.90
52209;DHT22;38507;53.132;6.394;2022-07-10T06:37:49;15.50;99.90
52209;DHT22;38507;53.132;6.394;2022-07-10T06:40:14;15.50;99.90
52209;DHT22;38507;53.132;6.394;2022-07-10T06:42:41;15.60;99.90
52209;DHT22;38507;53.132;6.394;2022-07-10T06:45:07;15.70;99.90
52209;DHT22;38507;53.132;6.394;2022-07-10T06:47:32;15.80;99.90
52209;DHT22;38507;53.132;6.394;2022-07-10T06:50:17;16.00;99.90
52209;DHT22;38507;53.132;6.394;2022-07-10T06:52:43;16.10;99.90
52209;DHT22;38507;53.132;6.394;2022-07-10T06:55:09;16.20;99.90
52209;DHT22;38507;53.132;6.394;2022-07-10T06:57:35;16.40;99.90
52209;DHT22;38507;53.132;6.394;2022-07-10T07:00:01;16.20;99.90
52209;DHT22;38507;53.132;6.394;2022-07-10T07:02:27;16.10;99.90
52209;DHT22;38507;53.132;6.394;2022-07-10T07:04:52;16.10;99.90
52209;DHT22;38507;53.132;6.394;2022-07-10T07:07:18;16.00;99.90
52209;DHT22;38507;53.132;6.394;2022-07-10T07:09:44;16.10;99.90
52209;DHT22;38507;53.132;6.394;2022-07-10T07:12:10;15.90;99.90
52209;DHT22;38507;53.132;6.394;2022-07-10T07:14:36;16.00;99.90
52209;DHT22;38507;53.132;6.394;2022-07-10T07:17:03;16.00;99.90
52209;DHT22;38507;53.132;6.394;2022-07-10T07:19:32;16.00;99.90
52209;DHT22;38507;53.132;6.394;2022-07-10T07:22:21;16.10;99.90
52209;DHT22;38507;53.132;6.394;2022-07-10T07:25:10;16.10;99.90
52209;DHT22;38507;53.132;6.394;2022-07-10T07:27:38;16.10;99.90
52209;DHT22;38507;53.132;6.394;2022-07-10T07:30:09;16.20;99.90
52209;DHT22;38507;53.132;6.394;2022-07-10T07:32:41;16.20;99.90
52209;DHT22;38507;53.132;6.394;2022-07-10T07:35:08;16.30;99.90
52209;DHT22;38507;53.132;6.394;2022-07-10T07:37:50;16.30;99.90
52209;DHT22;38507;53.132;6.394;2022-07-10T07:40:19;16.30;99.90
52209;DHT22;38507;53.132;6.394;2022-07-10T07:42:46;16.40;99.90
52209;DHT22;38507;53.132;6.394;2022-07-10T07:45:12;16.40;99.90
52209;DHT22;38507;53.132;6.394;2022-07-10T07:50:11;16.50;99.90
52209;DHT22;38507;53.132;6.394;2022-07-10T07:52:36;16.50;99.90
52209;DHT22;38507;53.132;6.394;2022-07-10T07:55:02;16.40;99.90
52209;DHT22;38507;53.132;6.394;2022-07-10T07:57:28;16.30;99.90
52209;DHT22;38507;53.132;6.394;2022-07-10T07:59:53;16.40;99.90
52209;DHT22;38507;53.132;6.394;2022-07-10T08:02:19;16.30;99.90
52209;DHT22;38507;53.132;6.394;2022-07-10T08:04:45;16.30;99.90
52209;DHT22;38507;53.132;6.394;2022-07-10T08:07:10;16.30;99.90
52209;DHT22;38507;53.132;6.394;2022-07-10T08:09:36;16.30;99.90
52209;DHT22;38507;53.132;6.394;2022-07-10T08:12:01;16.20;99.90
52209;DHT22;38507;53.132;6.394;2022-07-10T08:14:30;16.20;99.90
52209;DHT22;38507;53.132;6.394;2022-07-10T08:16:56;16.20;99.90
52209;DHT22;38507;53.132;6.394;2022-07-10T08:19:22;16.20;99.90
52209;DHT22;38507;53.132;6.394;2022-07-10T08:21:51;16.30;99.90
52209;DHT22;38507;53.132;6.394;2022-07-10T08:24:16;16.30;99.90
52209;DHT22;38507;53.132;6.394;2022-07-10T08:26:42;16.30;99.90
52209;DHT22;38507;53.132;6.394;2022-07-10T08:29:08;16.20;99.90
52209;DHT22;38507;53.132;6.394;2022-07-10T08:31:35;16.10;99.90
52209;DHT22;38507;53.132;6.394;2022-07-10T08:34:00;16.00;99.90
52209;DHT22;38507;53.132;6.394;2022-07-10T08:36:26;16.00;99.90
52209;DHT22;38507;53.132;6.394;2022-07-10T08:38:52;15.80;99.90
52209;DHT22;38507;53.132;6.394;2022-07-10T08:44:12;15.70;99.90
52209;DHT22;38507;53.132;6.394;2022-07-10T08:46:38;15.60;99.90
52209;DHT22;38507;53.132;6.394;2022-07-10T08:49:08;15.50;99.90
52209;DHT22;38507;53.132;6.394;2022-07-10T08:51:38;15.60;99.90
52209;DHT22;38507;53.132;6.394;2022-07-10T08:54:08;15.60;99.90
52209;DHT22;38507;53.132;6.394;2022-07-10T08:56:34;15.70;99.90
52209;DHT22;38507;53.132;6.394;2022-07-10T08:59:02;15.70;99.90
52209;DHT22;38507;53.132;6.394;2022-07-10T09:01:30;15.60;99.90
52209;DHT22;38507;53.132;6.394;2022-07-10T09:03:56;15.60;99.90
52209;DHT22;38507;53.132;6.394;2022-07-10T09:06:21;15.60;99.90
52209;DHT22;38507;53.132;6.394;2022-07-10T09:09:07;15.70;99.90
52209;DHT22;38507;53.132;6.394;2022-07-10T09:11:33;15.60;99.90
52209;DHT22;38507;53.132;6.394;2022-07-10T09:14:04;15.70;99.90
52209;DHT22;38507;53.132;6.394;2022-07-10T09:16:30;15.70;99.90
52209;DHT22;38507;53.132;6.394;2022-07-10T09:18:56;15.80;99.90
52209;DHT22;38507;53.132;6.394;2022-07-10T09:21:23;16.10;99.90
52209;DHT22;38507;53.132;6.394;2022-07-10T09:23:49;15.90;99.90
52209;DHT22;38507;53.132;6.394;2022-07-10T09:26:15;16.20;99.90
52209;DHT22;38507;53.132;6.394;2022-07-10T09:28:41;15.90;99.90
52209;DHT22;38507;53.132;6.394;2022-07-10T09:31:07;15.90;99.90
52209;DHT22;38507;53.132;6.394;2022-07-10T09:33:33;16.40;99.90
52209;DHT22;38507;53.132;6.394;2022-07-10T09:36:08;15.90;99.90
52209;DHT22;38507;53.132;6.394;2022-07-10T09:41:15;16.00;99.90
52209;DHT22;38507;53.132;6.394;2022-07-10T09:43:45;16.00;99.90
52209;DHT22;38507;53.132;6.394;2022-07-10T09:46:15;16.20;99.90
52209;DHT22;38507;53.132;6.394;2022-07-10T09:48:41;16.10;99.90
52209;DHT22;38507;53.132;6.394;2022-07-10T09:51:10;16.20;99.90
52209;DHT22;38507;53.132;6.394;2022-07-10T09:53:41;16.10;99.90
52209;DHT22;38507;53.132;6.394;2022-07-10T09:56:12;16.20;99.90
52209;DHT22;38507;53.132;6.394;2022-07-10T09:58:39;16.20;99.90
52209;DHT22;38507;53.132;6.394;2022-07-10T10:01:08;16.30;99.90
52209;DHT22;38507;53.132;6.394;2022-07-10T10:03:39;16.30;99.90
52209;DHT22;38507;53.132;6.394;2022-07-10T10:06:14;16.40;99.90
52209;DHT22;38507;53.132;6.394;2022-07-10T10:11:36;16.50;99.90
52209;DHT22;38507;53.132;6.394;2022-07-10T10:14:34;16.40;99.90
52209;DHT22;38507;53.132;6.394;2022-07-10T10:17:02;16.50;99.90
52209;DHT22;38507;53.132;6.394;2022-07-10T10:19:30;16.60;99.90
52209;DHT22;38507;53.132;6.394;2022-07-10T10:22:18;16.60;99.90
52209;DHT22;38507;53.132;6.394;2022-07-10T10:24:43;16.60;99.90
52209;DHT22;38507;53.132;6.394;2022-07-10T10:27:32;16.80;99.90
52209;DHT22;38507;53.132;6.394;2022-07-10T10:29:59;17.00;99.90
52209;DHT22;38507;53.132;6.394;2022-07-10T10:32:27;17.10;99.90
52209;DHT22;38507;53.132;6.394;2022-07-10T10:34:53;17.20;99.90
52209;DHT22;38507;53.132;6.394;2022-07-10T10:37:38;17.40;99.90
52209;DHT22;38507;53.132;6.394;2022-07-10T10:40:07;17.70;99.90
52209;DHT22;38507;53.132;6.394;2022-07-10T10:42:43;17.70;99.90
52209;DHT22;38507;53.132;6.394;2022-07-10T10:45:33;17.90;99.90
52209;DHT22;38507;53.132;6.394;2022-07-10T10:48:06;18.10;99.90
52209;DHT22;38507;53.132;6.394;2022-07-10T11:00:05;18.50;99.90
52209;DHT22;38507;53.132;6.394;2022-07-10T11:02:34;18.10;99.90
52209;DHT22;38507;53.132;6.394;2022-07-10T11:07:58;18.00;99.90
52209;DHT22;38507;53.132;6.394;2022-07-10T11:13:13;18.20;99.90
52209;DHT22;38507;53.132;6.394;2022-07-10T11:15:41;18.10;99.90
52209;DHT22;38507;53.132;6.394;2022-07-10T11:18:12;18.10;99.90
52209;DHT22;38507;53.132;6.394;2022-07-10T11:20:43;18.00;99.90
52209;DHT22;38507;53.132;6.394;2022-07-10T11:26:09;17.70;99.90
52209;DHT22;38507;53.132;6.394;2022-07-10T11:28:55;17.50;99.90
52209;DHT22;38507;53.132;6.394;2022-07-10T11:31:22;17.50;99.90
52209;DHT22;38507;53.132;6.394;2022-07-10T11:33:50;17.70;99.90
52209;DHT22;38507;53.132;6.394;2022-07-10T11:36:19;17.70;99.90
52209;DHT22;38507;53.132;6.394;2022-07-10T11:38:47;17.60;99.90
52209;DHT22;38507;53.132;6.394;2022-07-10T11:41:20;17.60;99.90
52209;DHT22;38507;53.132;6.394;2022-07-10T11:43:53;17.40;99.90
52209;DHT22;38507;53.132;6.394;2022-07-10T11:46:21;17.30;99.90
52209;DHT22;38507;53.132;6.394;2022-07-10T11:48:48;17.30;99.90
52209;DHT22;38507;53.132;6.394;2022-07-10T11:51:23;17.10;99.90
52209;DHT22;38507;53.132;6.394;2022-07-10T11:54:09;17.10;99.90
52209;DHT22;38507;53.132;6.394;2022-07-10T11:56:39;17.00;99.90
52209;DHT22;38507;53.132;6.394;2022-07-10T11:59:11;16.80;99.90
52209;DHT22;38507;53.132;6.394;2022-07-10T12:01:51;16.60;99.90
52209;DHT22;38507;53.132;6.394;2022-07-10T12:04:19;16.60;99.90
52209;DHT22;38507;53.132;6.394;2022-07-10T12:06:57;16.60;99.90
52209;DHT22;38507;53.132;6.394;2022-07-10T12:09:24;16.50;99.90
52209;DHT22;38507;53.132;6.394;2022-07-10T12:12:04;16.50;99.90
52209;DHT22;38507;53.132;6.394;2022-07-10T12:14:31;16.60;99.90
52209;DHT22;38507;53.132;6.394;2022-07-10T12:16:57;16.70;99.90
52209;DHT22;38507;53.132;6.394;2022-07-10T12:19:24;16.90;99.90
52209;DHT22;38507;53.132;6.394;2022-07-10T12:21:51;16.90;99.90
52209;DHT22;38507;53.132;6.394;2022-07-10T12:24:18;17.00;99.90
52209;DHT22;38507;53.132;6.394;2022-07-10T12:26:48;17.00;99.90
52209;DHT22;38507;53.132;6.394;2022-07-10T12:29:21;17.00;99.90
52209;DHT22;38507;53.132;6.394;2022-07-10T12:31:49;17.00;99.90
52209;DHT22;38507;53.132;6.394;2022-07-10T12:34:15;16.90;99.90
52209;DHT22;38507;53.132;6.394;2022-07-10T12:36:48;16.80;99.90
52209;DHT22;38507;53.132;6.394;2022-07-10T12:39:19;16.80;99.90
52209;DHT22;38507;53.132;6.394;2022-07-10T12:41:57;16.70;99.90
52209;DHT22;38507;53.132;6.394;2022-07-10T12:44:31;16.70;99.90
52209;DHT22;38507;53.132;6.394;2022-07-10T12:47:05;16.80;99.90
52209;DHT22;38507;53.132;6.394;2022-07-10T12:54:47;16.70;99.90
52209;DHT22;38507;53.132;6.394;2022-07-10T12:57:12;16.70;99.90
52209;DHT22;38507;53.132;6.394;2022-07-10T12:59:38;16.60;99.90
52209;DHT22;38507;53.132;6.394;2022-07-10T13:02:22;16.70;99.90
52209;DHT22;38507;53.132;6.394;2022-07-10T13:04:52;16.60;99.90
52209;DHT22;38507;53.132;6.394;2022-07-10T13:07:18;16.60;99.90
52209;DHT22;38507;53.132;6.394;2022-07-10T13:09:44;16.60;99.90
52209;DHT22;38507;53.132;6.394;2022-07-10T13:12:13;16.60;99.90
52209;DHT22;38507;53.132;6.394;2022-07-10T13:14:38;16.70;99.90
52209;DHT22;38507;53.132;6.394;2022-07-10T13:17:04;16.80;99.90
52209;DHT22;38507;53.132;6.394;2022-07-10T13:19:30;17.00;99.90
52209;DHT22;38507;53.132;6.394;2022-07-10T13:21:55;17.10;99.90
52209;DHT22;38507;53.132;6.394;2022-07-10T13:24:21;17.20;99.90
52209;DHT22;38507;53.132;6.394;2022-07-10T13:26:47;17.30;99.90
52209;DHT22;38507;53.132;6.394;2022-07-10T13:29:12;17.40;99.90
52209;DHT22;38507;53.132;6.394;2022-07-10T13:31:38;17.50;99.90
52209;DHT22;38507;53.132;6.394;2022-07-10T13:34:03;17.50;99.90
52209;DHT22;38507;53.132;6.394;2022-07-10T13:36:30;17.50;99.90
52209;DHT22;38507;53.132;6.394;2022-07-10T13:38:58;17.40;99.90
52209;DHT22;38507;53.132;6.394;2022-07-10T13:41:24;17.50;99.90
52209;DHT22;38507;53.132;6.394;2022-07-10T13:43:50;17.50;99.90
52209;DHT22;38507;53.132;6.394;2022-07-10T13:46:15;17.70;99.90
52209;DHT22;38507;53.132;6.394;2022-07-10T13:48:41;17.50;99.90
52209;DHT22;38507;53.132;6.394;2022-07-10T13:51:07;17.60;99.90
52209;DHT22;38507;53.132;6.394;2022-07-10T13:53:33;17.90;99.90
52209;DHT22;38507;53.132;6.394;2022-07-10T13:55:58;17.90;99.90
52209;DHT22;38507;53.132;6.394;2022-07-10T13:58:24;18.10;99.90
52209;DHT22;38507;53.132;6.394;2022-07-10T14:00:50;18.10;99.90
52209;DHT22;38507;53.132;6.394;2022-07-10T14:03:16;18.20;99.90
52209;DHT22;38507;53.132;6.394;2022-07-10T14:05:41;18.30;99.90
52209;DHT22;38507;53.132;6.394;2022-07-10T14:08:07;18.50;99.90
52209;DHT22;38507;53.132;6.394;2022-07-10T14:10:33;18.50;99.90
52209;DHT22;38507;53.132;6.394;2022-07-10T14:12:59;18.50;99.90
52209;DHT22;38507;53.132;6.394;2022-07-10T14:15:26;18.50;99.90
52209;DHT22;38507;53.132;6.394;2022-07-10T14:17:51;18.50;99.90
52209;DHT22;38507;53.132;6.394;2022-07-10T14:20:17;18.50;99.90
52209;DHT22;38507;53.132;6.394;2022-07-10T14:22:43;18.60;99.90
52209;DHT22;38507;53.132;6.394;2022-07-10T14:25:11;18.70;99.90
52209;DHT22;38507;53.132;6.394;2022-07-10T14:27:37;18.60;99.90
52209;DHT22;38507;53.132;6.394;2022-07-10T14:30:04;18.60;99.90
52209;DHT22;38507;53.132;6.394;2022-07-10T14:32:30;18.80;99.90
52209;DHT22;38507;53.132;6.394;2022-07-10T14:34:56;18.60;99.90
52209;DHT22;38507;53.132;6.394;2022-07-10T14:37:21;18.80;99.90
52209;DHT22;38507;53.132;6.394;2022-07-10T14:39:48;18.80;99.90
52209;DHT22;38507;53.132;6.394;2022-07-10T14:42:14;18.80;99.90
52209;DHT22;38507;53.132;6.394;2022-07-10T14:44:40;18.90;99.90
52209;DHT22;38507;53.132;6.394;2022-07-10T14:47:06;18.90;99.90
52209;DHT22;38507;53.132;6.394;2022-07-10T14:49:31;18.80;99.90
52209;DHT22;38507;53.132;6.394;2022-07-10T14:51:57;18.90;99.90
52209;DHT22;38507;53.132;6.394;2022-07-10T14:54:22;18.90;99.90
52209;DHT22;38507;53.132;6.394;2022-07-10T14:56:48;18.80;99.90
52209;DHT22;38507;53.132;6.394;2022-07-10T14:59:14;18.80;99.90
52209;DHT22;38507;53.132;6.394;2022-07-10T15:01:40;18.70;99.90
52209;DHT22;38507;53.132;6.394;2022-07-10T15:04:06;18.80;99.90
52209;DHT22;38507;53.132;6.394;2022-07-10T15:06:31;18.80;99.90
52209;DHT22;38507;53.132;6.394;2022-07-10T15:08:57;18.80;99.90
52209;DHT22;38507;53.132;6.394;2022-07-10T15:11:23;18.70;99.90
52209;DHT22;38507;53.132;6.394;2022-07-10T15:13:51;18.80;99.90
52209;DHT22;38507;53.132;6.394;2022-07-10T15:16:24;18.80;99.90
52209;DHT22;38507;53.132;6.394;2022-07-10T15:18:51;18.70;99.90
52209;DHT22;38507;53.132;6.394;2022-07-10T15:21:17;18.80;99.90
52209;DHT22;38507;53.132;6.394;2022-07-10T15:23:42;18.90;99.90
52209;DHT22;38507;53.132;6.394;2022-07-10T15:26:08;18.90;99.90
52209;DHT22;38507;53.132;6.394;2022-07-10T15:28:34;18.90;99.90
52209;DHT22;38507;53.132;6.394;2022-07-10T15:31:00;19.10;99.90
52209;DHT22;38507;53.132;6.394;2022-07-10T15:33:27;19.00;99.90
52209;DHT22;38507;53.132;6.394;2022-07-10T15:35:52;19.00;99.90
52209;DHT22;38507;53.132;6.394;2022-07-10T15:38:18;19.00;99.90
52209;DHT22;38507;53.132;6.394;2022-07-10T15:40:45;19.30;99.90
52209;DHT22;38507;53.132;6.394;2022-07-10T15:43:10;19.10;99.90
52209;DHT22;38507;53.132;6.394;2022-07-10T15:45:36;19.00;99.90
52209;DHT22;38507;53.132;6.394;2022-07-10T15:48:02;19.00;99.90
52209;DHT22;38507;53.132;6.394;2022-07-10T15:50:27;19.00;99.90
52209;DHT22;38507;53.132;6.394;2022-07-10T15:52:53;19.00;99.90
52209;DHT22;38507;53.132;6.394;2022-07-10T15:55:18;19.00;99.90
52209;DHT22;38507;53.132;6.394;2022-07-10T15:57:44;19.20;99.90
52209;DHT22;38507;53.132;6.394;2022-07-10T16:00:10;19.10;99.90
52209;DHT22;38507;53.132;6.394;2022-07-10T16:02:37;19.10;99.90
52209;DHT22;38507;53.132;6.394;2022-07-10T16:05:03;19.10;99.90